createdAt,value
2023-05-05T00:00:54.367Z,55.64
2023-05-05T00:03:23.030Z,56.38
2023-05-05T00:05:51.108Z,55.88
2023-05-05T00:08:19.319Z,57.22
2023-05-05T00:10:47.413Z,56.97
2023-05-05T00:13:16.700Z,55.53
2023-05-05T00:15:45.661Z,56.70
2023-05-05T00:18:14.372Z,56.14
2023-05-05T00:20:42.269Z,56.61
2023-05-05T00:23:10.382Z,55.81
2023-05-05T00:25:38.594Z,55.79
2023-05-05T00:28:06.991Z,56.12
2023-05-05T00:30:36.374Z,56.74
2023-05-05T00:33:04.389Z,56.51
2023-05-05T00:35:32.413Z,56.67
2023-05-05T00:38:00.681Z,57.12
2023-05-05T00:40:28.623Z,56.57
2023-05-05T00:42:56.591Z,56.87
2023-05-05T00:45:24.517Z,57.02
2023-05-05T00:47:55.643Z,56.72
2023-05-05T00:50:25.162Z,57.06
2023-05-05T00:52:55.150Z,56.85
2023-05-05T00:55:23.291Z,57.12
2023-05-05T00:57:51.285Z,56.94
2023-05-05T01:00:19.340Z,56.82
2023-05-05T01:02:47.307Z,56.55
2023-05-05T01:05:17.471Z,56.85
2023-05-05T01:08:04.039Z,56.64
2023-05-05T01:10:38.073Z,56.27
2023-05-05T01:13:17.456Z,56.24
2023-05-05T01:15:49.577Z,56.49
2023-05-05T01:18:36.343Z,56.10
2023-05-05T01:21:08.450Z,56.20
2023-05-05T01:23:57.051Z,56.88
2023-05-05T01:26:44.856Z,56.75
2023-05-05T01:29:33.532Z,56.46
2023-05-05T01:32:04.646Z,56.47
2023-05-05T01:34:38.278Z,56.32
2023-05-05T01:37:09.416Z,56.67
2023-05-05T01:39:38.662Z,56.97
2023-05-05T01:42:09.809Z,57.18
2023-05-05T01:44:38.313Z,57.10
2023-05-05T01:47:07.866Z,56.61
2023-05-05T01:49:37.230Z,57.38
2023-05-05T01:52:06.541Z,57.41
2023-05-05T01:54:35.609Z,57.09
2023-05-05T01:57:04.873Z,57.17
2023-05-05T01:59:33.678Z,57.17
2023-05-05T02:02:03.270Z,57.55
2023-05-05T02:04:34.290Z,57.26
2023-05-05T02:07:03.045Z,57.42
2023-05-05T02:09:31.447Z,57.14
2023-05-05T02:12:00.129Z,57.36
2023-05-05T02:14:28.871Z,57.28
2023-05-05T02:16:58.020Z,57.75
2023-05-05T02:19:30.566Z,58.32
2023-05-05T02:22:00.052Z,58.63
2023-05-05T02:24:28.109Z,58.93
2023-05-05T02:26:56.125Z,58.70
2023-05-05T02:29:29.429Z,58.02
2023-05-05T02:32:02.588Z,57.87
2023-05-05T02:34:32.127Z,57.95
2023-05-05T02:37:04.939Z,58.46
2023-05-05T02:39:35.800Z,58.02
2023-05-05T02:42:05.035Z,57.62
2023-05-05T02:44:34.344Z,58.66
2023-05-05T02:47:04.004Z,58.39
2023-05-05T02:49:31.921Z,58.62
2023-05-05T02:52:01.290Z,59.09
2023-05-05T02:54:29.440Z,59.27
2023-05-05T02:56:58.623Z,58.66
2023-05-05T02:59:37.000Z,58.99
2023-05-05T03:02:13.643Z,59.03
2023-05-05T03:04:43.965Z,58.97
2023-05-05T03:07:15.335Z,58.83
2023-05-05T03:09:47.579Z,58.77
2023-05-05T03:12:19.584Z,59.02
2023-05-05T03:14:48.785Z,58.57
2023-05-05T03:17:18.783Z,58.78
2023-05-05T03:19:46.999Z,58.51
2023-05-05T03:22:16.367Z,59.36
2023-05-05T03:24:44.268Z,59.90
2023-05-05T03:27:12.162Z,58.86
2023-05-05T03:29:40.092Z,58.59
2023-05-05T03:32:09.181Z,58.74
2023-05-05T03:34:37.724Z,58.33
2023-05-05T03:37:05.709Z,58.71
2023-05-05T03:39:34.997Z,59.46
2023-05-05T03:42:02.908Z,59.99
2023-05-05T03:44:30.797Z,59.25
2023-05-05T03:46:58.673Z,61.08
2023-05-05T03:49:26.827Z,60.29
2023-05-05T03:51:54.723Z,60.40
2023-05-05T03:54:22.649Z,59.67
2023-05-05T03:56:51.931Z,59.06
2023-05-05T03:59:20.062Z,58.92
2023-05-05T04:01:49.883Z,58.74
2023-05-05T04:04:17.933Z,59.57
2023-05-05T04:06:45.907Z,58.61
2023-05-05T04:09:14.640Z,59.09
2023-05-05T04:11:42.571Z,59.62
2023-05-05T04:14:11.864Z,59.92
2023-05-05T04:16:39.859Z,59.14
2023-05-05T04:19:07.739Z,61.35
2023-05-05T04:21:36.366Z,60.66
2023-05-05T04:24:04.386Z,59.91
2023-05-05T04:26:32.320Z,59.30
2023-05-05T04:29:00.222Z,59.18
2023-05-05T04:31:29.564Z,60.68
2023-05-05T04:33:57.499Z,59.67
2023-05-05T04:36:25.455Z,58.68
2023-05-05T04:38:53.454Z,58.56
2023-05-05T04:41:21.370Z,58.82
2023-05-05T04:43:49.308Z,58.58
2023-05-05T04:46:17.267Z,59.73
2023-05-05T04:48:46.542Z,59.15
2023-05-05T04:51:14.484Z,60.05
2023-05-05T04:53:42.388Z,58.97
2023-05-05T04:56:10.351Z,60.07
2023-05-05T04:58:38.231Z,58.97
2023-05-05T05:01:06.565Z,58.68
2023-05-05T05:03:34.509Z,59.10
2023-05-05T05:06:03.825Z,60.67
2023-05-05T05:08:31.735Z,58.65
2023-05-05T05:11:00.233Z,59.11
2023-05-05T05:13:28.122Z,58.63
2023-05-05T05:15:56.080Z,58.66
2023-05-05T05:18:24.056Z,58.59
2023-05-05T05:20:51.979Z,58.92
2023-05-05T05:23:21.287Z,59.03
2023-05-05T05:25:49.227Z,59.38
2023-05-05T05:28:17.126Z,58.79
2023-05-05T05:30:45.012Z,59.71
2023-05-05T05:33:13.020Z,59.17
2023-05-05T05:35:41.013Z,59.64
2023-05-05T05:38:08.900Z,59.21
2023-05-05T05:40:38.278Z,58.37
2023-05-05T05:43:06.554Z,59.35
2023-05-05T05:45:34.500Z,58.50
2023-05-05T05:48:02.426Z,58.28
2023-05-05T05:50:30.360Z,58.26
2023-05-05T05:52:58.229Z,57.80
2023-05-05T05:55:26.181Z,59.57
2023-05-05T05:57:55.449Z,58.81
2023-05-05T06:00:23.570Z,58.50
2023-05-05T06:02:52.415Z,58.46
2023-05-05T06:05:20.357Z,58.90
2023-05-05T06:07:48.272Z,58.70
2023-05-05T06:10:27.493Z,58.68
2023-05-05T06:12:57.876Z,58.48
2023-05-05T06:15:26.032Z,58.91
2023-05-05T06:17:54.022Z,58.87
2023-05-05T06:20:22.172Z,58.14
2023-05-05T06:22:50.140Z,58.08
2023-05-05T06:25:18.286Z,57.68
2023-05-05T06:27:46.453Z,58.29
2023-05-05T06:30:16.146Z,58.24
2023-05-05T06:32:44.046Z,59.15
2023-05-05T06:35:12.405Z,60.08
2023-05-05T06:37:40.288Z,59.21
2023-05-05T06:40:10.546Z,58.69
2023-05-05T06:42:38.692Z,58.80
2023-05-05T06:45:07.555Z,59.69
2023-05-05T06:47:37.325Z,58.59
2023-05-05T06:50:06.005Z,59.20
2023-05-05T06:52:34.092Z,58.76
2023-05-05T06:55:02.164Z,58.81
2023-05-05T06:57:30.109Z,58.10
2023-05-05T06:59:58.008Z,58.04
2023-05-05T07:02:26.951Z,58.17
2023-05-05T07:04:56.609Z,57.97
2023-05-05T07:07:24.556Z,58.39
2023-05-05T07:09:52.492Z,58.62
2023-05-05T07:12:20.399Z,58.34
2023-05-05T07:14:48.302Z,57.97
2023-05-05T07:17:16.206Z,58.37
2023-05-05T07:19:44.325Z,58.43
2023-05-05T07:22:13.649Z,57.95
2023-05-05T07:24:41.624Z,57.93
2023-05-05T07:27:09.793Z,57.88
2023-05-05T07:29:37.729Z,58.54
2023-05-05T07:32:06.163Z,58.69
2023-05-05T07:34:34.713Z,58.11
2023-05-05T07:37:04.115Z,59.95
2023-05-05T07:39:33.718Z,58.46
2023-05-05T07:42:01.791Z,59.01
2023-05-05T07:44:29.714Z,58.35
2023-05-05T07:46:57.647Z,57.50
2023-05-05T07:49:25.677Z,57.96
2023-05-05T07:51:53.676Z,56.79
2023-05-05T07:54:21.819Z,56.60
2023-05-05T07:56:51.141Z,56.22
2023-05-05T07:59:19.035Z,57.87
2023-05-05T08:01:46.977Z,56.47
2023-05-05T08:04:15.050Z,56.49
2023-05-05T08:06:42.972Z,56.61
2023-05-05T08:09:10.890Z,56.30
2023-05-05T08:11:38.767Z,55.81
2023-05-05T08:14:08.928Z,56.20
2023-05-05T08:16:36.892Z,55.77
2023-05-05T08:19:07.903Z,56.24
2023-05-05T08:21:42.669Z,54.85
2023-05-05T08:24:10.561Z,55.60
2023-05-05T08:26:38.488Z,55.70
2023-05-05T08:29:08.278Z,55.47
2023-05-05T08:31:37.916Z,55.33
2023-05-05T08:34:05.996Z,55.37
2023-05-05T08:36:34.163Z,55.17
2023-05-05T08:39:02.072Z,55.06
2023-05-05T08:41:30.061Z,54.67
2023-05-05T08:43:58.047Z,54.78
2023-05-05T08:46:28.340Z,54.99
2023-05-05T08:48:56.920Z,54.76
2023-05-05T08:51:25.383Z,54.51
2023-05-05T08:53:58.504Z,54.93
2023-05-05T08:56:28.515Z,54.81
2023-05-05T08:58:57.887Z,54.70
2023-05-05T09:01:27.518Z,54.61
2023-05-05T09:03:55.873Z,54.92
2023-05-05T09:06:25.668Z,56.03
2023-05-05T09:08:54.151Z,54.40
2023-05-05T09:11:23.193Z,55.06
2023-05-05T09:13:51.276Z,54.98
2023-05-05T09:16:19.181Z,54.77
2023-05-05T09:18:48.581Z,55.09
2023-05-05T09:21:23.222Z,54.82
2023-05-05T09:24:10.166Z,54.98
2023-05-05T09:26:39.551Z,55.69
2023-05-05T09:29:07.890Z,54.93
2023-05-05T09:31:37.102Z,54.80
2023-05-05T09:34:16.894Z,54.80
2023-05-05T09:36:47.737Z,54.91
2023-05-05T09:39:17.514Z,55.33
2023-05-05T09:41:45.944Z,54.53
2023-05-05T09:44:16.010Z,54.37
2023-05-05T09:46:51.549Z,54.43
2023-05-05T09:49:23.505Z,55.49
2023-05-05T09:51:52.899Z,53.62
2023-05-05T09:54:28.348Z,53.62
2023-05-05T09:56:57.042Z,53.66
2023-05-05T09:59:25.734Z,52.62
2023-05-05T10:01:53.701Z,52.96
2023-05-05T10:04:28.103Z,53.27
2023-05-05T10:06:56.680Z,53.03
2023-05-05T10:09:24.860Z,53.37
2023-05-05T10:11:53.491Z,53.37
2023-05-05T10:14:21.673Z,53.08
2023-05-05T10:16:50.967Z,52.78
2023-05-05T10:19:20.457Z,52.74
2023-05-05T10:21:52.158Z,52.32
2023-05-05T10:24:28.221Z,52.77
2023-05-05T10:26:58.114Z,52.26
2023-05-05T10:29:36.298Z,52.90
2023-05-05T10:32:24.429Z,52.90
2023-05-05T10:34:56.376Z,52.98
2023-05-05T10:37:26.130Z,53.31
2023-05-05T10:39:54.941Z,53.16
2023-05-05T10:42:24.042Z,53.17
2023-05-05T10:44:52.015Z,52.59
2023-05-05T10:47:20.565Z,52.72
2023-05-05T10:49:54.984Z,53.55
2023-05-05T10:52:33.461Z,52.70
2023-05-05T10:55:06.148Z,53.69
2023-05-05T10:57:38.032Z,52.72
2023-05-05T11:00:08.716Z,51.62
2023-05-05T11:02:38.682Z,52.27
2023-05-05T11:05:14.218Z,51.47
2023-05-05T11:07:44.373Z,52.10
2023-05-05T11:10:14.147Z,51.54
2023-05-05T11:13:19.975Z,52.82
2023-05-05T11:15:49.233Z,52.88
2023-05-05T11:18:34.123Z,53.59
2023-05-05T11:21:19.219Z,55.28
2023-05-05T11:23:52.650Z,55.06
2023-05-05T11:26:50.368Z,54.07
2023-05-05T11:29:18.521Z,56.04
2023-05-05T11:31:48.065Z,54.63
2023-05-05T11:34:27.902Z,54.69
2023-05-05T11:36:59.987Z,54.45
2023-05-05T11:39:40.395Z,54.51
2023-05-05T11:42:27.213Z,55.25
2023-05-05T11:44:55.712Z,54.33
2023-05-05T11:47:31.221Z,54.13
2023-05-05T11:49:59.411Z,53.64
2023-05-05T11:52:28.548Z,53.18
2023-05-05T11:55:02.430Z,52.66
2023-05-05T11:57:31.264Z,53.28
2023-05-05T12:00:01.675Z,51.90
2023-05-05T12:02:31.541Z,51.69
2023-05-05T12:05:00.403Z,52.43
2023-05-05T12:07:31.287Z,51.68
2023-05-05T12:10:00.967Z,51.84
2023-05-05T12:12:36.977Z,51.84
2023-05-05T12:15:05.741Z,52.50
2023-05-05T12:17:42.633Z,52.36
2023-05-05T12:20:12.278Z,53.93
2023-05-05T12:22:40.809Z,52.56
2023-05-05T12:25:11.319Z,52.57
2023-05-05T12:27:39.308Z,52.85
2023-05-05T12:30:15.716Z,53.33
2023-05-05T12:32:44.452Z,53.38
2023-05-05T12:35:12.968Z,52.32
2023-05-05T12:37:41.075Z,53.18
2023-05-05T12:40:46.503Z,52.27
2023-05-05T12:43:28.301Z,52.23
2023-05-05T12:46:07.327Z,52.53
2023-05-05T12:48:36.494Z,53.60
2023-05-05T12:51:23.181Z,53.67
2023-05-05T12:54:03.043Z,51.95
2023-05-05T12:56:34.363Z,52.42
2023-05-05T12:59:03.029Z,52.50
2023-05-05T13:01:31.663Z,52.34
2023-05-05T13:04:13.991Z,52.40
2023-05-05T13:06:43.349Z,52.37
2023-05-05T13:09:24.064Z,52.39
2023-05-05T13:11:54.502Z,52.33
2023-05-05T13:14:22.988Z,52.35
2023-05-05T13:16:51.066Z,52.85
2023-05-05T13:19:18.971Z,51.87
2023-05-05T13:21:46.848Z,51.50
2023-05-05T13:24:28.153Z,51.66
2023-05-05T13:27:04.548Z,51.76
2023-05-05T13:29:33.118Z,51.60
2023-05-05T13:32:01.138Z,51.78
2023-05-05T13:34:29.058Z,51.41
2023-05-05T13:36:57.094Z,51.98
2023-05-05T13:39:24.965Z,51.71
2023-05-05T13:41:52.868Z,51.35
2023-05-05T13:44:22.218Z,51.85
2023-05-05T13:46:50.181Z,51.84
2023-05-05T13:49:18.214Z,51.10
2023-05-05T13:51:47.132Z,50.39
2023-05-05T13:54:15.338Z,50.17
2023-05-05T13:56:43.961Z,50.71
2023-05-05T13:59:11.900Z,50.68
2023-05-05T14:01:41.343Z,50.69
2023-05-05T14:04:10.044Z,50.82
2023-05-05T14:06:37.942Z,51.15
2023-05-05T14:09:07.707Z,51.01
2023-05-05T14:11:35.638Z,50.57
2023-05-05T14:14:03.843Z,51.81
2023-05-05T14:16:31.906Z,51.32
2023-05-05T14:19:01.659Z,51.06
2023-05-05T14:21:29.581Z,51.20
2023-05-05T14:23:57.510Z,50.45
2023-05-05T14:26:25.655Z,51.05
2023-05-05T14:28:53.598Z,51.19
2023-05-05T14:31:21.550Z,51.30
2023-05-05T14:33:49.511Z,51.23
2023-05-05T14:36:18.778Z,50.73
2023-05-05T14:38:46.748Z,51.25
2023-05-05T14:41:14.729Z,50.93
2023-05-05T14:43:42.627Z,51.31
2023-05-05T14:46:10.723Z,51.54
2023-05-05T14:48:38.834Z,51.38
2023-05-05T14:51:06.860Z,51.44
2023-05-05T14:53:36.965Z,51.78
2023-05-05T14:56:04.994Z,51.32
2023-05-05T14:58:32.904Z,51.38
2023-05-05T15:01:00.956Z,51.31
2023-05-05T15:03:29.047Z,51.71
2023-05-05T15:05:57.079Z,51.64
2023-05-05T15:08:25.222Z,51.24
2023-05-05T15:10:54.552Z,51.92
2023-05-05T15:13:22.651Z,51.82
2023-05-05T15:15:51.359Z,52.28
2023-05-05T15:18:19.460Z,52.16
2023-05-05T15:20:47.408Z,51.87
2023-05-05T15:23:16.110Z,52.61
2023-05-05T15:25:44.155Z,52.47
2023-05-05T15:28:13.430Z,52.81
2023-05-05T15:30:41.526Z,52.98
2023-05-05T15:33:09.497Z,52.83
2023-05-05T15:35:37.604Z,52.71
2023-05-05T15:38:05.837Z,52.87
2023-05-05T15:40:33.805Z,53.27
2023-05-05T15:43:01.703Z,53.58
2023-05-05T15:45:31.101Z,53.49
2023-05-05T15:47:59.080Z,53.17
2023-05-05T15:50:27.062Z,53.15
2023-05-05T15:52:57.028Z,53.09
2023-05-05T15:55:25.822Z,52.90
2023-05-05T15:57:53.772Z,53.00
2023-05-05T16:00:22.271Z,53.07
2023-05-05T16:02:51.717Z,52.78
2023-05-05T16:05:21.413Z,52.84
2023-05-05T16:07:50.923Z,53.13
2023-05-05T16:10:19.455Z,52.52
2023-05-05T16:12:47.462Z,53.22
2023-05-05T16:15:15.423Z,53.75
2023-05-05T16:17:43.319Z,53.05
2023-05-05T16:20:13.479Z,53.32
2023-05-05T16:22:41.399Z,53.52
2023-05-05T16:25:10.277Z,53.14
2023-05-05T16:27:38.454Z,53.55
2023-05-05T16:30:07.444Z,53.37
2023-05-05T16:32:35.443Z,53.47
2023-05-05T16:35:03.384Z,53.42
2023-05-05T16:37:32.658Z,53.52
2023-05-05T16:40:01.507Z,53.89
2023-05-05T16:42:29.393Z,53.80
2023-05-05T16:44:57.274Z,53.51
2023-05-05T16:47:25.267Z,54.12
2023-05-05T16:49:53.392Z,53.93
2023-05-05T16:52:21.388Z,54.35
2023-05-05T16:54:55.548Z,53.75
2023-05-05T16:57:23.764Z,53.99
2023-05-05T16:59:51.867Z,53.87
2023-05-05T17:02:19.769Z,53.90
2023-05-05T17:04:47.763Z,53.95
2023-05-05T17:07:15.683Z,54.28
2023-05-05T17:09:43.611Z,54.26
2023-05-05T17:12:12.886Z,54.15
2023-05-05T17:14:41.502Z,53.96
2023-05-05T17:17:09.677Z,54.23
2023-05-05T17:19:37.680Z,54.66
2023-05-05T17:22:05.604Z,54.62
2023-05-05T17:24:33.526Z,56.56
2023-05-05T17:27:02.025Z,55.76
2023-05-05T17:29:31.323Z,57.52
2023-05-05T17:31:59.251Z,57.07
2023-05-05T17:34:27.173Z,57.12
2023-05-05T17:36:55.102Z,59.81
2023-05-05T17:39:22.995Z,58.95
2023-05-05T17:41:51.286Z,57.10
2023-05-05T17:44:19.222Z,58.10
2023-05-05T17:46:48.764Z,61.84
2023-05-05T17:49:17.445Z,61.62
2023-05-05T17:51:45.605Z,61.64
2023-05-05T17:54:13.507Z,62.06
2023-05-05T17:56:41.406Z,58.59
2023-05-05T17:59:09.570Z,57.99
2023-05-05T18:01:37.499Z,57.51
2023-05-05T18:04:09.680Z,57.07
2023-05-05T18:06:37.715Z,58.59
2023-05-05T18:09:05.610Z,57.98
2023-05-05T18:11:34.051Z,57.19
2023-05-05T18:14:01.959Z,57.23
2023-05-05T18:16:29.868Z,59.97
2023-05-05T18:18:57.783Z,59.50
2023-05-05T18:21:27.086Z,58.78
2023-05-05T18:24:01.766Z,57.83
2023-05-05T18:26:36.164Z,58.06
2023-05-05T18:29:04.050Z,59.81
2023-05-05T18:31:32.046Z,63.35
2023-05-05T18:33:59.961Z,58.59
2023-05-05T18:36:29.287Z,58.50
2023-05-05T18:38:57.385Z,58.30
2023-05-05T18:41:25.281Z,58.35
2023-05-05T18:43:53.194Z,58.90
2023-05-05T18:46:22.530Z,58.53
2023-05-05T18:48:50.829Z,58.13
2023-05-05T18:51:18.862Z,57.98
2023-05-05T18:53:48.170Z,59.55
2023-05-05T18:56:16.127Z,61.09
2023-05-05T18:58:44.024Z,59.21
2023-05-05T19:01:11.964Z,59.17
2023-05-05T19:03:39.908Z,65.52
2023-05-05T19:06:08.351Z,61.41
2023-05-05T19:08:36.250Z,60.63
2023-05-05T19:11:05.642Z,61.21
2023-05-05T19:13:33.568Z,60.20
2023-05-05T19:16:01.535Z,61.32
2023-05-05T19:18:29.500Z,61.02
2023-05-05T19:20:57.479Z,61.36
2023-05-05T19:23:25.414Z,61.29
2023-05-05T19:25:53.488Z,66.61
2023-05-05T19:28:22.842Z,62.75
2023-05-05T19:30:50.764Z,67.87
2023-05-05T19:33:18.931Z,61.75
2023-05-05T19:35:46.887Z,66.70
2023-05-05T19:38:14.884Z,62.50
2023-05-05T19:40:43.090Z,62.52
2023-05-05T19:43:11.070Z,63.44
2023-05-05T19:45:40.417Z,62.67
2023-05-05T19:48:08.372Z,62.81
2023-05-05T19:50:36.296Z,65.73
2023-05-05T19:53:04.761Z,64.72
2023-05-05T19:55:33.237Z,71.79
2023-05-05T20:01:10.383Z,65.98
2023-05-05T20:03:38.577Z,64.23
2023-05-05T20:06:07.098Z,69.89
2023-05-05T20:08:35.093Z,68.20
2023-05-05T20:11:03.196Z,65.87
2023-05-05T20:13:31.096Z,65.32
2023-05-05T20:15:59.594Z,66.75
2023-05-05T20:18:29.158Z,69.27
2023-05-05T20:20:59.006Z,67.43
2023-05-05T20:23:29.299Z,69.38
2023-05-05T20:26:14.493Z,66.38
2023-05-05T20:28:45.323Z,66.28
2023-05-05T20:31:14.934Z,66.31
2023-05-05T20:33:44.435Z,69.53
2023-05-05T20:36:12.455Z,67.54
2023-05-05T20:38:40.340Z,71.48
2023-05-05T20:41:08.412Z,71.62
2023-05-05T20:43:37.441Z,69.76
2023-05-05T20:46:05.369Z,66.83
2023-05-05T20:48:33.286Z,66.46
2023-05-05T20:51:06.028Z,66.27
2023-05-05T20:53:34.037Z,65.90
2023-05-05T20:56:01.997Z,65.09
2023-05-05T20:58:30.753Z,65.09
2023-05-05T21:00:58.920Z,65.20
2023-05-05T21:03:59.950Z,65.10
2023-05-05T21:06:29.328Z,64.86
2023-05-05T21:08:57.332Z,66.67
2023-05-05T21:11:25.243Z,67.19
2023-05-05T21:13:53.152Z,66.11
2023-05-05T21:16:21.101Z,66.27
2023-05-05T21:18:49.050Z,66.04
2023-05-05T21:21:17.278Z,66.54
2023-05-05T21:23:48.725Z,65.64
2023-05-05T21:26:16.799Z,65.60
2023-05-05T21:28:44.751Z,65.58
2023-05-05T21:31:21.742Z,65.69
2023-05-05T21:33:50.313Z,68.11
2023-05-05T21:36:19.310Z,67.34
2023-05-05T21:38:48.720Z,67.44
2023-05-05T21:41:16.825Z,66.33
2023-05-05T21:43:44.789Z,66.08
2023-05-05T21:46:12.952Z,67.53
2023-05-05T21:48:41.445Z,67.27
2023-05-05T21:51:09.398Z,66.34
2023-05-05T21:53:37.921Z,65.96
2023-05-05T21:56:08.402Z,68.35
2023-05-05T21:58:36.538Z,67.78
2023-05-05T22:01:04.568Z,66.83
2023-05-05T22:03:32.679Z,67.13
2023-05-05T22:06:00.656Z,66.75
2023-05-05T22:08:28.613Z,66.88
2023-05-05T22:10:56.477Z,66.23
2023-05-05T22:13:25.756Z,65.94
2023-05-05T22:15:53.825Z,66.97
2023-05-05T22:18:21.709Z,67.12
2023-05-05T22:20:49.628Z,66.89
2023-05-05T22:23:17.545Z,67.70
2023-05-05T22:25:45.492Z,66.78
2023-05-05T22:28:13.433Z,68.74
2023-05-05T22:30:42.777Z,66.85
2023-05-05T22:33:10.929Z,66.62
2023-05-05T22:35:39.126Z,66.05
2023-05-05T22:38:07.149Z,66.88
2023-05-05T22:40:35.152Z,65.96
2023-05-05T22:43:03.109Z,65.92
2023-05-05T22:45:31.225Z,66.13
2023-05-05T22:48:00.856Z,65.87
2023-05-05T22:50:29.020Z,66.24
2023-05-05T22:52:57.293Z,66.55
2023-05-05T22:55:25.226Z,66.54
2023-05-05T22:57:53.619Z,66.66
2023-05-05T23:00:21.536Z,66.66
2023-05-05T23:02:49.506Z,67.19
2023-05-05T23:05:18.974Z,67.73
2023-05-05T23:07:46.856Z,66.92
2023-05-05T23:10:14.773Z,66.90
2023-05-05T23:12:42.726Z,70.26
2023-05-05T23:15:11.669Z,67.76
2023-05-05T23:17:39.875Z,67.40
2023-05-05T23:20:09.775Z,66.86
2023-05-05T23:22:39.102Z,68.33
2023-05-05T23:25:08.167Z,67.33
2023-05-05T23:27:36.291Z,67.61
2023-05-05T23:30:04.219Z,68.86
2023-05-05T23:32:32.215Z,68.09
2023-05-05T23:35:00.133Z,68.35
2023-05-05T23:37:28.542Z,67.35
2023-05-05T23:39:57.839Z,67.17
2023-05-05T23:42:25.833Z,70.07
2023-05-05T23:44:53.741Z,71.47
2023-05-05T23:47:21.649Z,72.18
2023-05-05T23:49:49.521Z,71.96
2023-05-05T23:52:17.417Z,68.58
2023-05-05T23:54:46.131Z,68.10
2023-05-05T23:57:16.096Z,67.62
2023-05-05T23:59:43.996Z,67.57
